createdAt,value
2019-01-26T00:02:09.157Z,9
2019-01-26T00:12:16.094Z,10
2019-01-26T00:22:24.545Z,10
2019-01-26T00:32:31.295Z,9
2019-01-26T00:42:39.267Z,9
2019-01-26T00:52:52.001Z,8
2019-01-26T01:03:00.021Z,11
2019-01-26T01:13:06.000Z,10
2019-01-26T01:23:14.777Z,8
2019-01-26T01:33:22.267Z,10
2019-01-26T01:43:30.703Z,8
2019-01-26T01:53:36.980Z,9
2019-01-26T02:03:44.122Z,10
2019-01-26T02:13:53.293Z,10
2019-01-26T02:24:00.270Z,8
2019-01-26T02:34:08.731Z,7
2019-01-26T02:44:15.890Z,6
2019-01-26T02:54:23.338Z,5
2019-01-26T03:04:31.359Z,6
2019-01-26T03:14:36.577Z,3
2019-01-26T03:24:42.884Z,7
2019-01-26T03:34:50.766Z,5
2019-01-26T03:44:58.332Z,3
2019-01-26T03:55:06.674Z,3
2019-01-26T04:05:15.216Z,3
2019-01-26T04:15:22.556Z,3
2019-01-26T04:25:29.892Z,3
2019-01-26T04:35:36.715Z,2
2019-01-26T04:45:45.302Z,3
2019-01-26T04:55:53.111Z,2
2019-01-26T05:06:02.860Z,2
2019-01-26T05:16:11.447Z,3
2019-01-26T05:26:20.272Z,2
2019-01-26T05:36:27.816Z,4
2019-01-26T05:46:33.697Z,3
2019-01-26T05:56:41.911Z,4
2019-01-26T06:06:49.795Z,3
2019-01-26T06:16:56.203Z,4
2019-01-26T06:27:02.741Z,3
2019-01-26T06:37:09.168Z,5
2019-01-26T06:47:16.599Z,3
2019-01-26T06:57:23.370Z,3
2019-01-26T07:07:29.793Z,3
2019-01-26T07:17:35.627Z,2
2019-01-26T07:18:48.746Z,2
2019-01-26T07:28:56.616Z,3
2019-01-26T07:39:05.927Z,5
2019-01-26T07:49:15.276Z,3
2019-01-26T07:59:22.085Z,3
2019-01-26T08:09:31.103Z,3
2019-01-26T08:19:37.587Z,6
2019-01-26T08:29:45.870Z,3
2019-01-26T08:39:54.156Z,5
2019-01-26T08:50:05.304Z,5
2019-01-26T09:00:13.244Z,4
2019-01-26T09:10:18.609Z,4
2019-01-26T09:20:24.995Z,5
2019-01-26T09:30:49.316Z,5
2019-01-26T09:40:53.621Z,3
2019-01-26T09:45:37.409Z,4
2019-01-26T09:55:41.237Z,5
2019-01-26T09:56:56.115Z,3
2019-01-26T10:06:59.223Z,10
2019-01-26T10:17:05.794Z,3
2019-01-26T10:26:25.355Z,3
2019-01-26T10:36:34.618Z,3
2019-01-26T10:46:41.015Z,4
2019-01-26T10:56:48.978Z,4
2019-01-26T11:06:57.298Z,4
2019-01-26T11:17:03.710Z,5
2019-01-26T11:27:11.135Z,5
2019-01-26T11:37:19.984Z,6
2019-01-26T11:47:26.967Z,8
2019-01-26T11:57:34.779Z,18
2019-01-26T12:07:40.940Z,7
2019-01-26T12:17:48.724Z,5
2019-01-26T12:20:03.647Z,5
2019-01-26T12:30:12.894Z,7
2019-01-26T12:37:57.090Z,5
2019-01-26T12:48:03.384Z,6
2019-01-26T12:58:13.115Z,8
2019-01-26T13:08:18.823Z,7
2019-01-26T13:18:28.083Z,4
2019-01-26T13:23:56.600Z,4
2019-01-26T13:34:03.689Z,3
2019-01-26T13:44:12.606Z,10
2019-01-26T13:54:20.017Z,8
2019-01-26T14:04:29.497Z,5
2019-01-26T14:14:33.784Z,4
2019-01-26T14:24:40.954Z,3
2019-01-26T14:34:47.599Z,4
2019-01-26T14:44:54.370Z,5
2019-01-26T14:55:05.551Z,6
2019-01-26T15:05:12.377Z,5
2019-01-26T15:15:19.012Z,8
2019-01-26T15:25:25.650Z,3
2019-01-26T15:35:34.243Z,3
2019-01-26T15:36:48.844Z,3
2019-01-26T15:46:58.378Z,3
2019-01-26T15:57:09.125Z,3
2019-01-26T16:07:15.638Z,4
2019-01-26T16:17:25.455Z,7
2019-01-26T16:27:32.027Z,3
2019-01-26T16:32:13.149Z,4
2019-01-26T16:42:21.040Z,4
2019-01-26T16:52:29.080Z,4
2019-01-26T17:02:36.181Z,6
2019-01-26T17:12:43.574Z,5
2019-01-26T17:22:51.298Z,10
2019-01-26T17:32:58.376Z,13
2019-01-26T17:43:09.103Z,9
2019-01-26T17:53:17.042Z,9
2019-01-26T18:03:24.061Z,18
2019-01-26T18:13:30.977Z,20
2019-01-26T18:23:37.910Z,15
2019-01-26T18:33:45.280Z,15
2019-01-26T18:43:52.884Z,16
2019-01-26T18:54:01.146Z,21
2019-01-26T19:04:07.696Z,22
2019-01-26T19:14:16.465Z,23
2019-01-26T19:24:24.791Z,25
2019-01-26T19:34:32.518Z,21
2019-01-26T19:37:46.471Z,20
2019-01-26T19:47:54.561Z,24
2019-01-26T19:58:01.049Z,19
2019-01-26T20:08:08.276Z,20
2019-01-26T20:18:18.260Z,31
2019-01-26T20:28:25.650Z,18
2019-01-26T20:38:31.899Z,17
2019-01-26T20:48:40.247Z,19
2019-01-26T20:58:49.081Z,17
2019-01-26T21:08:55.567Z,17
2019-01-26T21:19:03.616Z,15
2019-01-26T21:29:09.523Z,13
2019-01-26T21:39:15.453Z,15
2019-01-26T21:49:21.658Z,16
2019-01-26T21:59:29.151Z,17
2019-01-26T22:09:37.957Z,14
2019-01-26T22:19:58.495Z,13
2019-01-26T22:30:05.813Z,12
2019-01-26T22:40:13.286Z,12
2019-01-26T22:50:22.286Z,10
2019-01-26T23:00:32.267Z,11
2019-01-26T23:10:39.481Z,13
2019-01-26T23:20:45.533Z,11
2019-01-26T23:30:53.356Z,10
2019-01-26T23:41:00.209Z,14
2019-01-26T23:51:07.107Z,13
